Thursday, September 20, 2018, 7:02 PM EDT
Back to Local

KRWI, Rocky Mount-wilson Airport

Location: Elm City, NC, United States Lat: 35.85
Local Time: 7:02 PM EDT (23:02 GMT) Lon: -77.9
Time Zone: US/Eastern Elev: 160 ft

Show me the last for .
Show Decoded

2018-09-20 17:53 METAR KRWI 202153Z AUTO 07004KT 10SM CLR 28/21 A3014 RMK AO2 SLP206 T02830206 =
2018-09-20 16:53 METAR KRWI 202053Z AUTO 00000KT 10SM SCT060 29/21 A3014 RMK AO2 SLP205 T02890211
                 56008 =
2018-09-20 15:53 METAR KRWI 201953Z AUTO 06004KT 10SM SCT040 BKN047 OVC075 29/21 A3014 RMK AO2
                 SLP206 T02890206 =
2018-09-20 14:53 METAR KRWI 201853Z AUTO 06006KT 10SM BKN036 BKN075 29/21 A3015 RMK AO2 SLP206
                 T02890211 =
2018-09-20 13:53 METAR KRWI 201753Z AUTO 07004KT 10SM FEW032 OVC075 29/21 A3016 RMK AO2 SLP213
                 T02890211 10289 20217 58006 =
2018-09-20 12:53 METAR KRWI 201653Z AUTO 10SM SCT030 BKN034 OVC070 28/21 A3018 RMK AO2 SLP216
                 T02830211 =
2018-09-20 12:35 METAR KRWI 201635Z AUTO 13004KT 10SM BKN028 BKN065 28/21 A3018 RMK AO2 T02780211
                 =
2018-09-20 11:53 METAR KRWI 201553Z AUTO VRB05KT 10SM CLR 28/22 A3018 RMK AO2 SLP219 T02830217 =
2018-09-20 10:53 METAR KRWI 201453Z AUTO 00000KT 10SM SCT080 27/22 A3018 RMK AO2 SLP219 T02670217
                 51018 =
2018-09-20 10:08 METAR KRWI 201408Z AUTO 00000KT 7SM FEW009 25/23 A3018 RMK AO2 T02500233 =
2018-09-20 09:53 METAR KRWI 201353Z AUTO 00000KT 6SM BR SCT080 24/23 A3018 RMK AO2 SLP217
                 T02440228 =
2018-09-20 08:53 METAR KRWI 201253Z AUTO 00000KT 4SM BR OVC080 23/22 A3015 RMK AO2 SLP209
                 T02280222 =
2018-09-20 07:53 METAR KRWI 201153Z AUTO 00000KT 3SM BR OVC075 22/21 A3013 RMK AO2 SLP201
                 T02170211 10217 20194 51018 =
2018-09-20 07:50 METAR KRWI 201150Z AUTO 00000KT 3SM BR OVC075 22/21 A3013 RMK AO2 =
2018-09-20 07:40 METAR KRWI 201140Z AUTO 00000KT 2 1/2SM BR OVC075 21/21 A3012 RMK AO2 T02110211
                 =
2018-09-20 07:30 METAR KRWI 201130Z AUTO 00000KT 1SM BR OVC080 21/21 A3012 RMK AO2 T02060206 =
2018-09-20 07:04 METAR KRWI 201104Z AUTO 00000KT 1/4SM FG BKN080 21/21 A3011 RMK AO2 T02060206 =
2018-09-20 06:53 METAR KRWI 201053Z AUTO 00000KT 1/2SM FG SCT080 21/21 A3010 RMK AO2 SLP190
                 T02060206 =
2018-09-20 06:24 METAR KRWI 201024Z AUTO 00000KT 1/2SM FG CLR 20/20 A3008 RMK AO2 T02000200 =
2018-09-20 05:53 METAR KRWI 200953Z AUTO 00000KT 1/4SM FG CLR 20/20 A3007 RMK AO2 SLP182
                 T02000200 =
2018-09-20 05:18 METAR KRWI 200918Z AUTO 00000KT 3/4SM BR CLR 21/21 A3006 RMK AO2 T02060206 =
2018-09-20 05:08 METAR KRWI 200908Z AUTO 00000KT 1/4SM FG CLR 20/20 A3006 RMK AO2 T02000200 =
2018-09-20 04:53 METAR KRWI 200853Z AUTO 00000KT 1/4SM FG VV004 20/20 A3005 RMK AO2 SLP174
                 T02000200 53002 =
2018-09-20 04:37 METAR KRWI 200837Z AUTO 00000KT 1/2SM FG CLR 21/21 A3005 RMK AO2 T02060206 =
2018-09-20 04:34 METAR KRWI 200834Z AUTO 00000KT 1/4SM FG VV004 21/21 A3005 RMK AO2 T02060206 =
2018-09-20 04:22 METAR KRWI 200822Z AUTO 00000KT 1/4SM FG CLR 21/21 A3005 RMK AO2 T02060206 =
2018-09-20 03:53 METAR KRWI 200753Z AUTO 00000KT 1/2SM FG SCT090 21/21 A3004 RMK AO2 SLP171
                 T02110211 =
2018-09-20 03:49 METAR KRWI 200749Z AUTO 00000KT 1/2SM FG SCT090 21/21 A3004 RMK AO2 =
2018-09-20 03:26 METAR KRWI 200726Z AUTO 00000KT 1 3/4SM BR FEW090 21/21 A3004 RMK AO2 T02060206
                 =
2018-09-20 03:18 METAR KRWI 200718Z AUTO 00000KT 2SM BR CLR 21/21 A3004 RMK AO2 T02060206 =
2018-09-20 03:10 METAR KRWI 200710Z AUTO 00000KT 1 1/2SM BR CLR 21/21 A3004 RMK AO2 VIS 3/4V3
                 T02110211 =
2018-09-20 02:53 METAR KRWI 200653Z AUTO 00000KT 3/4SM BR CLR 21/21 A3005 RMK AO2 SLP172
                 T02110211 =
2018-09-20 02:50 METAR KRWI 200650Z AUTO 00000KT 3/4SM BR CLR 21/21 A3004 RMK AO2 =
2018-09-20 02:40 METAR KRWI 200640Z AUTO 00000KT 1/4SM FG CLR 21/21 A3004 RMK AO2 T02110211 =
2018-09-20 01:51 METAR KRWI 200551Z AUTO 00000KT 3/4SM BR CLR 22/21 A3004 RMK AO2 SLP171
                 T02170211 10239 20211 51003 =
2018-09-20 01:50 METAR KRWI 200550Z AUTO 00000KT 3/4SM BR CLR 22/21 A3004 RMK AO2 =
2018-09-20 01:06 METAR KRWI 200506Z AUTO 00000KT 2SM BR CLR 22/22 A3004 RMK AO2 T02170217 =
2018-09-20 00:53 METAR KRWI 200453Z AUTO 00000KT 3/4SM BR CLR 22/22 A3004 RMK AO2 SLP171
                 T02170217 403110200 =
2018-09-20 00:39 METAR KRWI 200439Z AUTO 00000KT 3/4SM BR CLR 22/21 A3004 RMK AO2 T02170211 =
2018-09-20 00:32 METAR KRWI 200432Z AUTO 00000KT 1SM BR CLR 22/22 A3004 RMK AO2 T02170217 =
2018-09-19 23:53 METAR KRWI 200353Z AUTO 00000KT 3/4SM BR CLR 22/22 A3003 RMK AO2 VIS 1/4V4
                 SLP168 T02170217 =
2018-09-19 23:50 METAR KRWI 200350Z AUTO 00000KT 1 1/4SM BR CLR 22/22 A3003 RMK AO2 VIS 1/4V4 =
2018-09-19 23:12 METAR KRWI 200312Z AUTO 00000KT 3SM BR CLR 22/22 A3003 RMK AO2 T02170217 =
2018-09-19 23:05 METAR KRWI 200305Z AUTO 00000KT 2 1/2SM BR CLR 22/22 A3003 RMK AO2 T02220222 =
2018-09-19 22:53 METAR KRWI 200253Z AUTO 00000KT 4SM BR CLR 22/22 A3003 RMK AO2 SLP166 T02220217
                 51021 =
2018-09-19 21:53 METAR KRWI 200153Z AUTO 00000KT 7SM CLR 22/22 A3001 RMK AO2 SLP161 T02220222 =
2018-09-19 20:53 METAR KRWI 200053Z AUTO 00000KT 10SM CLR 23/22 A2999 RMK AO2 SLP154 T02280222 =
2018-09-19 19:53 METAR KRWI 192353Z AUTO 00000KT 10SM CLR 24/22 A2997 RMK AO2 SLP145 T02390222
                 10311 20233 51010 =

Support USWX by starting your Amazon purchase here.